createdAt,value
2023-04-15T00:02:00.243Z,53.60
2023-04-15T00:04:29.304Z,53.70
2023-04-15T00:06:58.008Z,53.80
2023-04-15T00:09:27.607Z,53.90
2023-04-15T00:11:55.903Z,54.10
2023-04-15T00:14:24.193Z,54.10
2023-04-15T00:16:56.277Z,54.20
2023-04-15T00:19:25.275Z,54.20
2023-04-15T00:21:53.784Z,54.20
2023-04-15T00:24:21.976Z,54.30
2023-04-15T00:26:51.572Z,54.40
2023-04-15T00:29:19.877Z,54.60
2023-04-15T00:31:48.024Z,54.60
2023-04-15T00:34:16.628Z,54.70
2023-04-15T00:36:44.899Z,54.80
2023-04-15T00:39:13.452Z,54.60
2023-04-15T00:41:41.639Z,54.80
2023-04-15T00:44:11.475Z,54.80
2023-04-15T00:46:40.332Z,54.80
2023-04-15T00:49:08.752Z,54.90
2023-04-15T00:51:37.145Z,54.90
2023-04-15T00:54:05.880Z,54.90
2023-04-15T00:56:36.924Z,54.90
2023-04-15T00:59:05.523Z,55.00
2023-04-15T01:01:36.435Z,55.10
2023-04-15T01:04:05.894Z,55.00
2023-04-15T01:06:34.248Z,55.10
2023-04-15T01:09:03.451Z,55.10
2023-04-15T01:11:34.227Z,55.10
2023-04-15T01:14:03.648Z,55.20
2023-04-15T01:16:32.801Z,55.30
2023-04-15T01:19:03.145Z,55.50
2023-04-15T01:21:31.457Z,55.70
2023-04-15T01:24:00.466Z,55.80
2023-04-15T01:26:30.691Z,55.90
2023-04-15T01:28:59.010Z,56.20
2023-04-15T01:31:27.523Z,56.20
2023-04-15T01:33:55.845Z,56.30
2023-04-15T01:36:23.999Z,56.40
2023-04-15T01:38:52.782Z,56.50
2023-04-15T01:41:25.228Z,56.50
2023-04-15T01:43:55.167Z,56.60
2023-04-15T01:46:23.842Z,56.60
2023-04-15T01:48:51.998Z,56.70
2023-04-15T01:51:20.398Z,56.70
2023-04-15T01:53:48.600Z,56.90
2023-04-15T01:56:17.012Z,56.90
2023-04-15T01:58:45.487Z,57.00
2023-04-15T02:01:16.887Z,57.10
2023-04-15T02:03:45.314Z,57.10
2023-04-15T02:06:13.597Z,57.20
2023-04-15T02:08:41.832Z,57.30
2023-04-15T02:11:10.093Z,57.40
2023-04-15T02:13:38.328Z,57.50
2023-04-15T02:16:18.406Z,57.60
2023-04-15T02:18:48.096Z,57.60
2023-04-15T02:21:16.311Z,58.20
2023-04-15T02:23:44.862Z,57.70
2023-04-15T02:26:12.989Z,57.70
2023-04-15T02:28:41.234Z,57.80
2023-04-15T02:31:09.626Z,57.90
2023-04-15T02:33:39.154Z,57.90
2023-04-15T02:36:07.887Z,57.80
2023-04-15T02:38:36.147Z,58.00
2023-04-15T02:41:04.798Z,58.00
2023-04-15T02:43:32.979Z,58.10
2023-04-15T02:46:01.295Z,58.20
2023-04-15T02:48:29.663Z,58.30
2023-04-15T02:53:51.866Z,58.40
2023-04-15T02:56:20.062Z,58.50
2023-04-15T02:58:50.702Z,58.60
2023-04-15T03:01:20.473Z,58.70
2023-04-15T03:03:48.837Z,58.80
2023-04-15T03:06:17.105Z,58.80
2023-04-15T03:08:45.874Z,58.70
2023-04-15T03:11:16.114Z,58.90
2023-04-15T03:13:44.370Z,58.90
2023-04-15T03:16:12.626Z,59.10
2023-04-15T03:18:40.879Z,59.10
2023-04-15T03:21:09.010Z,59.20
2023-04-15T03:23:37.243Z,59.10
2023-04-15T03:26:06.184Z,59.10
2023-04-15T03:28:35.788Z,59.20
2023-04-15T03:31:04.016Z,59.10
2023-04-15T03:33:32.256Z,59.20
2023-04-15T03:36:00.465Z,59.10
2023-04-15T03:38:28.753Z,59.10
2023-04-15T03:40:56.909Z,59.10
2023-04-15T03:43:25.066Z,59.20
2023-04-15T03:45:54.594Z,59.40
2023-04-15T03:48:22.865Z,59.60
2023-04-15T03:50:51.033Z,59.60
2023-04-15T03:53:19.193Z,59.60
2023-04-15T03:55:47.704Z,59.60
2023-04-15T03:58:15.935Z,59.60
2023-04-15T04:00:44.036Z,59.60
2023-04-15T04:03:13.793Z,59.70
2023-04-15T04:05:42.538Z,59.80
2023-04-15T04:08:13.848Z,59.90
2023-04-15T04:10:42.141Z,59.90
2023-04-15T04:13:10.322Z,60.50
2023-04-15T04:15:38.556Z,60.00
2023-04-15T04:18:06.892Z,59.90
2023-04-15T04:20:36.597Z,60.00
2023-04-15T04:23:04.773Z,60.00
2023-04-15T04:25:33.112Z,60.00
2023-04-15T04:28:01.305Z,60.00
2023-04-15T04:30:29.764Z,60.00
2023-04-15T04:32:57.958Z,60.10
2023-04-15T04:35:26.182Z,60.10
2023-04-15T04:37:56.497Z,60.10
2023-04-15T04:40:24.680Z,60.20
2023-04-15T04:42:52.889Z,60.40
2023-04-15T04:45:21.781Z,60.50
2023-04-15T04:47:50.045Z,60.60
2023-04-15T04:50:18.344Z,60.70
2023-04-15T04:52:46.664Z,60.80
2023-04-15T04:55:16.176Z,61.10
2023-04-15T04:57:44.470Z,61.20
2023-04-15T05:00:14.066Z,61.20
2023-04-15T05:02:44.134Z,61.20
2023-04-15T05:05:13.315Z,61.40
2023-04-15T05:07:41.538Z,61.40
2023-04-15T05:10:10.681Z,61.60
2023-04-15T05:12:40.222Z,61.70
2023-04-15T05:15:09.731Z,61.70
2023-04-15T05:17:37.927Z,61.70
2023-04-15T05:20:07.401Z,61.70
2023-04-15T05:22:35.863Z,61.70
2023-04-15T05:25:04.196Z,61.80
2023-04-15T05:27:32.348Z,61.90
2023-04-15T05:30:01.939Z,62.00
2023-04-15T05:32:30.187Z,62.00
2023-04-15T05:34:58.560Z,62.20
2023-04-15T05:37:26.820Z,62.10
2023-04-15T05:39:54.982Z,62.20
2023-04-15T05:42:23.180Z,62.50
2023-04-15T05:44:51.904Z,62.70
2023-04-15T05:47:21.766Z,63.10
2023-04-15T05:49:49.968Z,63.50
2023-04-15T05:52:18.165Z,63.70
2023-04-15T05:54:46.565Z,63.90
2023-04-15T05:57:14.786Z,64.00
2023-04-15T05:59:43.082Z,64.00
2023-04-15T06:02:11.756Z,63.90
2023-04-15T06:04:41.412Z,63.90
2023-04-15T06:07:09.583Z,63.90
2023-04-15T06:09:37.755Z,63.80
2023-04-15T06:12:06.883Z,63.70
2023-04-15T06:14:35.027Z,63.50
2023-04-15T06:17:03.192Z,63.40
2023-04-15T06:19:31.888Z,63.20
2023-04-15T06:22:01.901Z,62.80
2023-04-15T06:24:30.400Z,62.90
2023-04-15T06:26:58.731Z,63.10
2023-04-15T06:29:26.871Z,63.10
2023-04-15T06:31:56.501Z,63.00
2023-04-15T06:34:24.796Z,63.00
2023-04-15T06:36:54.683Z,62.90
2023-04-15T06:39:24.339Z,62.60
2023-04-15T06:41:52.511Z,62.30
2023-04-15T06:44:20.805Z,61.90
2023-04-15T06:46:49.111Z,61.50
2023-04-15T06:49:17.180Z,61.20
2023-04-15T06:51:45.405Z,60.90
2023-04-15T06:54:13.572Z,60.70
2023-04-15T06:56:43.029Z,60.50
2023-04-15T06:59:11.152Z,60.40
2023-04-15T07:01:39.786Z,60.20
2023-04-15T07:04:08.233Z,60.10
2023-04-15T07:06:36.518Z,59.90
2023-04-15T07:09:05.840Z,59.00
2023-04-15T07:11:34.249Z,58.90
2023-04-15T07:14:03.929Z,58.70
2023-04-15T07:16:32.191Z,58.30
2023-04-15T07:19:00.583Z,58.00
2023-04-15T07:21:29.508Z,58.00
2023-04-15T07:23:58.691Z,57.80
2023-04-15T07:26:26.977Z,57.60
2023-04-15T07:28:55.484Z,57.30
2023-04-15T07:31:25.065Z,57.00
2023-04-15T07:33:53.264Z,56.70
2023-04-15T07:36:21.588Z,56.50
2023-04-15T07:38:49.907Z,56.30
2023-04-15T07:41:18.326Z,56.20
2023-04-15T07:43:46.493Z,56.00
2023-04-15T07:46:14.801Z,56.00
2023-04-15T07:48:44.388Z,55.80
2023-04-15T07:51:12.947Z,56.30
2023-04-15T07:53:41.174Z,55.60
2023-04-15T07:56:09.726Z,55.40
2023-04-15T07:58:38.119Z,55.20
2023-04-15T08:01:06.855Z,55.20
2023-04-15T08:03:35.415Z,55.10
2023-04-15T08:06:05.432Z,55.00
2023-04-15T08:08:33.568Z,54.70
2023-04-15T08:11:01.795Z,54.60
2023-04-15T08:13:30.487Z,54.50
2023-04-15T08:16:19.223Z,54.30
2023-04-15T08:18:47.581Z,54.00
2023-04-15T08:21:17.666Z,54.00
2023-04-15T08:23:46.908Z,53.80
2023-04-15T08:26:15.287Z,53.80
2023-04-15T08:28:45.049Z,53.70
2023-04-15T08:31:14.005Z,53.60
2023-04-15T08:33:42.176Z,53.60
2023-04-15T08:36:10.566Z,53.60
2023-04-15T08:38:40.466Z,53.80
2023-04-15T08:41:13.024Z,52.70
2023-04-15T08:43:48.548Z,52.20
2023-04-15T08:46:17.476Z,51.40
2023-04-15T08:48:46.986Z,51.10
2023-04-15T08:51:16.310Z,50.40
2023-04-15T08:53:47.246Z,50.10
2023-04-15T08:56:16.852Z,49.60
2023-04-15T08:58:46.029Z,49.10
2023-04-15T09:01:14.838Z,48.90
2023-04-15T09:03:43.832Z,48.70
2023-04-15T09:06:12.507Z,48.20
2023-04-15T09:08:40.686Z,48.00
2023-04-15T09:11:10.177Z,48.00
2023-04-15T09:13:38.289Z,47.80
2023-04-15T09:16:08.186Z,47.80
2023-04-15T09:18:38.302Z,47.60
2023-04-15T09:21:08.891Z,47.30
2023-04-15T09:23:37.928Z,47.00
2023-04-15T09:26:07.152Z,46.80
2023-04-15T09:28:43.333Z,46.80
2023-04-15T09:31:12.002Z,46.70
2023-04-15T09:33:57.047Z,46.90
2023-04-15T09:36:26.226Z,46.90
2023-04-15T09:38:57.647Z,47.00
2023-04-15T09:41:27.314Z,46.80
2023-04-15T09:43:56.886Z,46.80
2023-04-15T09:46:43.574Z,46.80
2023-04-15T09:49:13.273Z,46.60
2023-04-15T09:51:44.801Z,46.80
2023-04-15T09:54:21.869Z,46.80
2023-04-15T09:56:50.046Z,46.90
2023-04-15T09:59:20.187Z,47.00
2023-04-15T10:01:49.191Z,47.00
2023-04-15T10:04:17.936Z,47.10
2023-04-15T10:06:46.507Z,47.00
2023-04-15T10:09:14.866Z,47.00
2023-04-15T10:11:44.349Z,47.00
2023-04-15T10:14:14.251Z,46.90
2023-04-15T10:16:49.212Z,46.70
2023-04-15T10:19:24.122Z,46.70
2023-04-15T10:21:53.175Z,46.70
2023-04-15T10:24:22.192Z,46.80
2023-04-15T10:26:51.429Z,47.00
2023-04-15T10:29:20.751Z,47.10
2023-04-15T10:31:50.993Z,46.90
2023-04-15T10:34:20.113Z,47.00
2023-04-15T10:36:48.483Z,47.20
2023-04-15T10:39:42.034Z,47.20
2023-04-15T10:42:11.824Z,47.30
2023-04-15T10:44:41.538Z,47.40
2023-04-15T10:47:18.592Z,47.50
2023-04-15T10:49:48.729Z,47.60
2023-04-15T10:52:18.500Z,47.70
2023-04-15T10:54:47.594Z,47.80
2023-04-15T10:57:18.347Z,47.90
2023-04-15T11:00:11.527Z,48.00
2023-04-15T11:02:43.260Z,47.90
2023-04-15T11:05:11.937Z,47.80
2023-04-15T11:07:50.467Z,48.00
2023-04-15T11:10:52.925Z,47.70
2023-04-15T11:13:28.985Z,47.50
2023-04-15T11:16:02.159Z,47.50
2023-04-15T11:18:33.622Z,47.50
2023-04-15T11:21:04.615Z,47.40
2023-04-15T11:23:35.202Z,48.00
2023-04-15T11:26:05.618Z,47.40
2023-04-15T11:28:34.618Z,47.20
2023-04-15T11:31:08.618Z,47.20
2023-04-15T11:33:38.495Z,47.10
2023-04-15T11:36:07.459Z,47.10
2023-04-15T11:38:37.806Z,47.00
2023-04-15T11:41:06.100Z,47.10
2023-04-15T11:43:35.444Z,47.10
2023-04-15T11:46:05.457Z,47.20
2023-04-15T11:48:36.126Z,47.10
2023-04-15T11:51:07.394Z,47.30
2023-04-15T11:53:40.869Z,47.50
2023-04-15T11:56:10.468Z,47.90
2023-04-15T11:58:39.453Z,47.60
2023-04-15T12:01:08.670Z,47.60
2023-04-15T12:03:41.557Z,47.80
2023-04-15T12:06:19.777Z,47.80
2023-04-15T12:09:02.807Z,47.90
2023-04-15T12:11:36.969Z,47.80
2023-04-15T12:14:07.993Z,47.90
2023-04-15T12:16:49.185Z,48.00
2023-04-15T12:19:24.349Z,48.10
2023-04-15T12:22:00.543Z,48.10
2023-04-15T12:24:29.414Z,48.30
2023-04-15T12:26:58.818Z,48.30
2023-04-15T12:29:29.058Z,48.50
2023-04-15T12:31:59.584Z,48.50
2023-04-15T12:34:30.405Z,48.70
2023-04-15T12:37:01.627Z,48.90
2023-04-15T12:39:32.455Z,49.00
2023-04-15T12:42:01.634Z,49.10
2023-04-15T12:44:30.047Z,49.30
2023-04-15T12:46:59.798Z,49.40
2023-04-15T12:49:28.640Z,49.50
2023-04-15T12:52:00.901Z,49.70
2023-04-15T12:54:29.774Z,49.80
2023-04-15T12:56:59.104Z,50.10
2023-04-15T12:59:29.107Z,50.20
2023-04-15T13:02:00.249Z,50.30
2023-04-15T13:04:30.666Z,50.40
2023-04-15T13:07:00.593Z,50.50
2023-04-15T13:09:28.827Z,50.60
2023-04-15T13:11:57.604Z,50.80
2023-04-15T13:14:25.840Z,51.00
2023-04-15T13:16:53.970Z,51.20
2023-04-15T13:19:22.085Z,51.30
2023-04-15T13:21:50.436Z,51.50
2023-04-15T13:24:19.905Z,51.60
2023-04-15T13:26:50.108Z,51.60
2023-04-15T13:29:18.753Z,51.70
2023-04-15T13:31:47.042Z,51.70
2023-04-15T13:34:15.563Z,51.80
2023-04-15T13:36:43.689Z,51.80
2023-04-15T13:39:11.866Z,52.00
2023-04-15T13:41:41.406Z,52.00
2023-04-15T13:44:09.798Z,52.60
2023-04-15T13:46:39.527Z,52.10
2023-04-15T13:49:07.929Z,52.20
2023-04-15T13:51:36.856Z,52.30
2023-04-15T13:54:05.578Z,52.40
2023-04-15T13:56:33.916Z,52.50
2023-04-15T13:59:04.040Z,52.60
2023-04-15T14:01:32.389Z,52.80
2023-04-15T14:04:00.762Z,52.90
2023-04-15T14:06:29.801Z,53.10
2023-04-15T14:08:58.050Z,53.20
2023-04-15T14:11:26.304Z,53.20
2023-04-15T14:13:54.452Z,53.40
2023-04-15T14:16:24.053Z,53.50
2023-04-15T14:18:52.397Z,53.60
2023-04-15T14:21:20.704Z,53.60
2023-04-15T14:23:48.807Z,53.60
2023-04-15T14:26:17.014Z,53.60
2023-04-15T14:28:45.355Z,53.60
2023-04-15T14:31:14.048Z,53.70
2023-04-15T14:33:43.636Z,53.70
2023-04-15T14:36:11.865Z,53.70
2023-04-15T14:38:40.252Z,53.90
2023-04-15T14:41:08.801Z,53.90
2023-04-15T14:43:37.246Z,54.00
2023-04-15T14:46:05.491Z,54.10
2023-04-15T14:48:33.839Z,54.30
2023-04-15T14:51:03.556Z,54.50
2023-04-15T14:53:31.785Z,54.70
2023-04-15T14:56:00.030Z,54.90
2023-04-15T14:58:28.229Z,55.10
2023-04-15T15:00:56.392Z,55.40
2023-04-15T15:03:24.914Z,55.60
2023-04-15T15:05:53.167Z,55.80
2023-04-15T15:08:22.806Z,55.90
2023-04-15T15:10:51.169Z,56.20
2023-04-15T15:13:19.990Z,56.30
2023-04-15T15:15:50.115Z,56.50
2023-04-15T15:18:19.581Z,56.60
2023-04-15T15:20:48.060Z,56.70
2023-04-15T15:23:16.363Z,56.90
2023-04-15T15:25:47.628Z,56.80
2023-04-15T15:28:15.794Z,56.90
2023-04-15T15:30:43.984Z,57.00
2023-04-15T15:33:12.186Z,57.10
2023-04-15T15:35:40.943Z,57.20
2023-04-15T15:38:09.280Z,57.30
2023-04-15T15:40:37.407Z,57.40
2023-04-15T15:43:07.053Z,57.40
2023-04-15T15:45:35.772Z,57.50
2023-04-15T15:48:04.220Z,57.50
2023-04-15T15:50:32.791Z,57.70
2023-04-15T15:53:00.956Z,57.70
2023-04-15T15:55:29.155Z,57.90
2023-04-15T15:57:57.366Z,57.90
2023-04-15T16:00:27.072Z,57.90
2023-04-15T16:03:06.836Z,58.00
2023-04-15T16:05:35.778Z,58.20
2023-04-15T16:08:04.027Z,58.90
2023-04-15T16:10:32.454Z,58.30
2023-04-15T16:13:00.804Z,58.40
2023-04-15T16:15:30.408Z,58.40
2023-04-15T16:17:58.801Z,58.60
2023-04-15T16:20:28.291Z,58.70
2023-04-15T16:22:58.401Z,58.80
2023-04-15T16:25:26.650Z,58.90
2023-04-15T16:28:05.420Z,59.10
2023-04-15T16:30:41.859Z,59.20
2023-04-15T16:33:11.115Z,59.40
2023-04-15T16:35:39.374Z,59.70
2023-04-15T16:38:07.608Z,59.80
2023-04-15T16:40:35.783Z,60.10
2023-04-15T16:43:04.513Z,60.30
2023-04-15T16:45:32.615Z,60.40
2023-04-15T16:48:02.296Z,60.60
2023-04-15T16:50:30.488Z,60.80
2023-04-15T16:52:58.888Z,60.90
2023-04-15T16:55:27.391Z,61.00
2023-04-15T16:58:01.506Z,61.10
2023-04-15T17:00:31.480Z,61.30
2023-04-15T17:03:00.052Z,61.40
2023-04-15T17:05:30.519Z,61.50
2023-04-15T17:07:59.017Z,61.60
2023-04-15T17:10:27.603Z,61.70
2023-04-15T17:12:57.368Z,61.70
2023-04-15T17:15:25.962Z,61.80
2023-04-15T17:17:54.394Z,61.90
2023-04-15T17:20:22.774Z,61.70
2023-04-15T17:22:52.413Z,61.50
2023-04-15T17:25:20.870Z,61.40
2023-04-15T17:27:49.087Z,61.30
2023-04-15T17:30:17.242Z,61.40
2023-04-15T17:32:46.043Z,61.50
2023-04-15T17:35:14.403Z,61.70
2023-04-15T17:37:42.616Z,61.60
2023-04-15T17:40:13.751Z,61.60
2023-04-15T17:42:42.309Z,61.60
2023-04-15T17:45:11.528Z,61.50
2023-04-15T17:47:39.972Z,61.30
2023-04-15T17:50:09.430Z,61.30
2023-04-15T17:52:37.709Z,61.30
2023-04-15T17:55:06.784Z,61.40
2023-04-15T17:57:36.576Z,61.50
2023-04-15T18:00:05.500Z,61.40
2023-04-15T18:02:35.449Z,61.40
2023-04-15T18:05:06.090Z,61.40
2023-04-15T18:07:34.418Z,61.40
2023-04-15T18:10:02.721Z,61.40
2023-04-15T18:12:31.008Z,61.30
2023-04-15T18:15:00.991Z,61.40
2023-04-15T18:17:29.192Z,61.50
2023-04-15T18:19:57.562Z,61.50
2023-04-15T18:22:25.780Z,61.50
2023-04-15T18:24:54.523Z,61.40
2023-04-15T18:27:22.861Z,61.40
2023-04-15T18:29:52.199Z,61.50
2023-04-15T18:32:21.825Z,61.70
2023-04-15T18:34:50.159Z,61.80
2023-04-15T18:37:18.442Z,61.80
2023-04-15T18:39:47.032Z,62.00
2023-04-15T18:42:15.235Z,62.10
2023-04-15T18:44:43.386Z,62.50
2023-04-15T18:47:11.727Z,62.70
2023-04-15T18:49:41.458Z,63.00
2023-04-15T18:52:10.739Z,63.30
2023-04-15T18:54:39.355Z,63.80
2023-04-15T18:57:07.722Z,64.10
2023-04-15T18:59:36.175Z,64.40
2023-04-15T19:02:07.348Z,64.60
2023-04-15T19:04:36.114Z,65.00
2023-04-15T19:07:05.925Z,65.40
2023-04-15T19:09:34.162Z,65.80
2023-04-15T19:12:03.062Z,66.10
2023-04-15T19:14:31.214Z,66.50
2023-04-15T19:16:59.504Z,66.70
2023-04-15T19:19:29.330Z,67.00
2023-04-15T19:21:57.855Z,67.30
2023-04-15T19:24:27.476Z,67.90
2023-04-15T19:26:57.152Z,68.20
2023-04-15T19:29:25.960Z,68.40
2023-04-15T19:31:54.109Z,68.80
2023-04-15T19:34:22.485Z,68.90
2023-04-15T19:36:50.766Z,69.50
2023-04-15T19:39:19.687Z,70.00
2023-04-15T19:41:49.797Z,70.30
2023-04-15T19:44:18.090Z,70.50
2023-04-15T19:46:49.834Z,70.60
2023-04-15T19:49:18.365Z,71.00
2023-04-15T19:51:48.617Z,71.50
2023-04-15T19:54:16.862Z,71.70
2023-04-15T19:56:45.356Z,72.10
2023-04-15T19:59:15.016Z,72.20
2023-04-15T20:01:43.246Z,72.30
2023-04-15T20:04:12.022Z,72.60
2023-04-15T20:06:40.600Z,72.70
2023-04-15T20:09:11.109Z,72.90
2023-04-15T20:12:44.801Z,73.10
2023-04-15T20:14:29.569Z,73.20
2023-04-15T20:16:58.462Z,73.30
2023-04-15T20:19:26.659Z,73.50
2023-04-15T20:21:55.029Z,73.70
2023-04-15T20:24:24.206Z,74.00
2023-04-15T20:26:52.407Z,74.30
2023-04-15T20:29:20.615Z,74.20
2023-04-15T20:31:50.362Z,74.50
2023-04-15T20:34:18.467Z,74.70
2023-04-15T20:36:47.097Z,74.90
2023-04-15T20:39:15.230Z,75.00
2023-04-15T20:41:43.374Z,75.40
2023-04-15T20:44:11.496Z,75.40
2023-04-15T20:46:39.614Z,75.40
2023-04-15T20:49:09.225Z,75.50
2023-04-15T20:51:37.963Z,76.30
2023-04-15T20:54:07.043Z,75.90
2023-04-15T20:56:35.312Z,76.20
2023-04-15T20:59:03.773Z,76.20
2023-04-15T21:01:32.141Z,76.40
2023-04-15T21:04:00.702Z,76.60
2023-04-15T21:06:30.850Z,76.60
2023-04-15T21:08:58.986Z,76.90
2023-04-15T21:11:49.511Z,78.10
2023-04-15T21:14:15.566Z,78.30
2023-04-15T21:16:44.403Z,78.40
2023-04-15T21:19:12.678Z,78.60
2023-04-15T21:21:42.443Z,78.70
2023-04-15T21:24:10.799Z,78.90
2023-04-15T21:26:38.987Z,79.00
2023-04-15T21:29:09.444Z,79.10
2023-04-15T21:31:39.513Z,79.30
2023-04-15T21:34:07.771Z,79.20
2023-04-15T21:36:36.230Z,79.40
2023-04-15T21:39:06.277Z,79.50
2023-04-15T21:41:34.626Z,79.70
2023-04-15T21:44:02.774Z,80.20
2023-04-15T21:46:33.158Z,80.00
2023-04-15T21:49:06.375Z,80.00
2023-04-15T21:51:35.357Z,80.00
2023-04-15T21:54:05.027Z,80.20
2023-04-15T21:56:33.501Z,80.10
2023-04-15T21:59:01.781Z,80.10
2023-04-15T22:01:30.059Z,80.40
2023-04-15T22:03:58.348Z,81.20
2023-04-15T22:06:27.060Z,80.70
2023-04-15T22:09:09.246Z,80.60
2023-04-15T22:11:40.217Z,80.70
2023-04-15T22:14:09.073Z,80.90
2023-04-15T22:16:37.363Z,80.80
2023-04-15T22:19:05.910Z,80.80
2023-04-15T22:21:34.274Z,81.10
2023-04-15T22:24:34.465Z,81.00
2023-04-15T22:26:51.932Z,81.10
2023-04-15T22:29:20.212Z,81.30
2023-04-15T22:31:48.373Z,81.30
2023-04-15T22:34:21.161Z,81.30
2023-04-15T22:36:49.389Z,81.60
2023-04-15T22:39:17.819Z,81.70
2023-04-15T22:41:46.257Z,81.90
2023-04-15T22:44:15.816Z,81.90
2023-04-15T22:46:44.132Z,81.80
2023-04-15T22:49:12.379Z,81.80
2023-04-15T22:51:40.625Z,81.80
2023-04-15T22:54:08.811Z,82.70
2023-04-15T22:56:37.074Z,82.10
2023-04-15T22:59:05.247Z,82.10
2023-04-15T23:01:34.887Z,82.10
2023-04-15T23:04:09.627Z,81.90
2023-04-15T23:06:52.353Z,82.10
2023-04-15T23:09:20.934Z,82.00
2023-04-15T23:11:49.142Z,82.20
2023-04-15T23:14:17.280Z,82.10
2023-04-15T23:16:46.776Z,82.10
2023-04-15T23:19:15.048Z,82.10
2023-04-15T23:21:43.321Z,81.90
2023-04-15T23:24:12.325Z,82.00
2023-04-15T23:26:40.791Z,81.90
2023-04-15T23:29:09.655Z,82.00
2023-04-15T23:31:38.191Z,82.00
2023-04-15T23:34:07.792Z,82.30
2023-04-15T23:36:36.097Z,82.40
2023-04-15T23:39:04.301Z,82.50
2023-04-15T23:41:32.424Z,82.20
2023-04-15T23:44:00.563Z,81.90
2023-04-15T23:46:28.720Z,82.00
2023-04-15T23:48:56.863Z,82.10
2023-04-15T23:51:26.392Z,82.20
2023-04-15T23:53:54.571Z,82.30
2023-04-15T23:56:22.744Z,82.40
2023-04-15T23:58:50.891Z,83.00
